sensor_id;sensor_type;location;lat;lon;timestamp;pressure;altitude;pressure_sealevel;temperature;humidity
13486;BME280;6815;59.336;17.998;2023-02-03T00:02:13;52157.03;;;-145.37;83.99
13486;BME280;6815;59.336;17.998;2023-02-03T00:04:39;52125.09;;;-145.37;84.70
13486;BME280;6815;59.336;17.998;2023-02-03T00:07:05;52173.00;;;-145.37;84.11
13486;BME280;6815;59.336;17.998;2023-02-03T00:09:30;52188.97;;;-145.37;84.20
13486;BME280;6815;59.336;17.998;2023-02-03T00:11:56;52161.03;;;-145.37;84.74
13486;BME280;6815;59.336;17.998;2023-02-03T00:14:21;52139.06;;;-145.37;84.93
13486;BME280;6815;59.336;17.998;2023-02-03T00:16:47;52171.00;;;-145.37;85.39
13486;BME280;6815;59.336;17.998;2023-02-03T00:19:12;52147.03;;;-145.37;84.57
13486;BME280;6815;59.336;17.998;2023-02-03T00:21:40;52167.00;;;-145.37;85.34
13486;BME280;6815;59.336;17.998;2023-02-03T00:24:09;52182.97;;;-145.37;85.56
13486;BME280;6815;59.336;17.998;2023-02-03T00:26:40;52135.06;;;-145.37;84.29
13486;BME280;6815;59.336;17.998;2023-02-03T00:29:07;52175.00;;;-145.37;84.90
13486;BME280;6815;59.336;17.998;2023-02-03T00:31:34;52163.00;;;-145.37;84.01
13486;BME280;6815;59.336;17.998;2023-02-03T00:33:59;52182.97;;;-145.37;84.38
13486;BME280;6815;59.336;17.998;2023-02-03T00:36:25;52159.03;;;-145.37;83.48
13486;BME280;6815;59.336;17.998;2023-02-03T00:38:50;52163.00;;;-145.37;83.51
13486;BME280;6815;59.336;17.998;2023-02-03T00:41:17;52139.06;;;-145.37;83.11
13486;BME280;6815;59.336;17.998;2023-02-03T00:43:43;52163.00;;;-145.37;83.40
13486;BME280;6815;59.336;17.998;2023-02-03T00:46:09;52161.03;;;-145.37;83.89
13486;BME280;6815;59.336;17.998;2023-02-03T00:48:37;52171.00;;;-145.37;82.77
13486;BME280;6815;59.336;17.998;2023-02-03T00:51:03;52157.03;;;-145.37;83.11
13486;BME280;6815;59.336;17.998;2023-02-03T00:53:29;52169.00;;;-145.37;82.69
13486;BME280;6815;59.336;17.998;2023-02-03T00:55:55;52171.00;;;-145.37;84.29
13486;BME280;6815;59.336;17.998;2023-02-03T00:58:20;52202.94;;;-145.37;83.58
13486;BME280;6815;59.336;17.998;2023-02-03T01:00:46;52151.03;;;-145.37;83.28
13486;BME280;6815;59.336;17.998;2023-02-03T01:03:11;52147.03;;;-145.37;83.42
13486;BME280;6815;59.336;17.998;2023-02-03T01:05:37;52175.00;;;-145.37;83.83
13486;BME280;6815;59.336;17.998;2023-02-03T01:08:03;52151.03;;;-145.37;83.55
13486;BME280;6815;59.336;17.998;2023-02-03T01:10:29;52173.00;;;-145.37;83.31
13486;BME280;6815;59.336;17.998;2023-02-03T01:12:54;52161.03;;;-145.37;82.57
13486;BME280;6815;59.336;17.998;2023-02-03T01:15:21;52190.97;;;-145.37;82.62
13486;BME280;6815;59.336;17.998;2023-02-03T01:17:48;52145.03;;;-145.37;82.96
13486;BME280;6815;59.336;17.998;2023-02-03T01:20:14;52178.97;;;-145.37;82.51
13486;BME280;6815;59.336;17.998;2023-02-03T01:22:41;52157.03;;;-145.37;82.61
13486;BME280;6815;59.336;17.998;2023-02-03T01:25:10;52141.06;;;-145.37;81.85
13486;BME280;6815;59.336;17.998;2023-02-03T01:27:52;52169.00;;;-145.37;82.91
13486;BME280;6815;59.336;17.998;2023-02-03T01:30:19;52182.97;;;-145.37;83.72
13486;BME280;6815;59.336;17.998;2023-02-03T01:32:46;52141.06;;;-145.37;84.19
13486;BME280;6815;59.336;17.998;2023-02-03T01:35:12;52147.03;;;-145.37;82.80
13486;BME280;6815;59.336;17.998;2023-02-03T01:37:38;52163.00;;;-145.37;82.49
13486;BME280;6815;59.336;17.998;2023-02-03T01:40:04;52147.03;;;-145.37;82.35
13486;BME280;6815;59.336;17.998;2023-02-03T01:42:32;52169.00;;;-145.37;82.74
13486;BME280;6815;59.336;17.998;2023-02-03T01:44:59;52178.97;;;-145.37;83.06
13486;BME280;6815;59.336;17.998;2023-02-03T01:47:49;52173.00;;;-145.37;82.78
13486;BME280;6815;59.336;17.998;2023-02-03T01:50:24;52129.06;;;-145.37;83.61
13486;BME280;6815;59.336;17.998;2023-02-03T01:52:56;52153.03;;;-145.37;83.27
13486;BME280;6815;59.336;17.998;2023-02-03T01:55:32;52157.03;;;-145.37;83.02
13486;BME280;6815;59.336;17.998;2023-02-03T01:58:06;52143.06;;;-145.37;82.41
13486;BME280;6815;59.336;17.998;2023-02-03T02:00:34;52192.97;;;-145.37;82.39
13486;BME280;6815;59.336;17.998;2023-02-03T02:03:01;52145.03;;;-145.37;83.34
13486;BME280;6815;59.336;17.998;2023-02-03T02:08:05;52141.06;;;-145.37;84.08
13486;BME280;6815;59.336;17.998;2023-02-03T02:10:32;52141.06;;;-145.37;83.41
13486;BME280;6815;59.336;17.998;2023-02-03T02:12:58;52159.03;;;-145.37;83.67
13486;BME280;6815;59.336;17.998;2023-02-03T02:18:18;52171.00;;;-145.37;83.49
13486;BME280;6815;59.336;17.998;2023-02-03T02:33:22;52135.06;;;-145.37;82.16
13486;BME280;6815;59.336;17.998;2023-02-03T02:36:39;52175.00;;;-145.37;83.22
13486;BME280;6815;59.336;17.998;2023-02-03T02:42:25;52167.00;;;-145.37;82.31
13486;BME280;6815;59.336;17.998;2023-02-03T02:44:52;52159.03;;;-145.37;82.25
13486;BME280;6815;59.336;17.998;2023-02-03T02:47:21;52145.03;;;-145.37;81.44
13486;BME280;6815;59.336;17.998;2023-02-03T02:49:58;52137.06;;;-145.37;81.05
13486;BME280;6815;59.336;17.998;2023-02-03T02:52:27;52137.06;;;-145.37;80.93
13486;BME280;6815;59.336;17.998;2023-02-03T02:54:58;52145.03;;;-145.37;80.94
13486;BME280;6815;59.336;17.998;2023-02-03T02:57:26;52177.00;;;-145.37;80.60
13486;BME280;6815;59.336;17.998;2023-02-03T02:59:54;52149.03;;;-145.37;80.15
13486;BME280;6815;59.336;17.998;2023-02-03T03:02:19;52167.00;;;-145.37;79.92
13486;BME280;6815;59.336;17.998;2023-02-03T03:04:48;52169.00;;;-145.37;79.47
13486;BME280;6815;59.336;17.998;2023-02-03T03:07:22;52145.03;;;-145.37;80.15
13486;BME280;6815;59.336;17.998;2023-02-03T03:09:59;52159.03;;;-145.37;80.38
13486;BME280;6815;59.336;17.998;2023-02-03T03:12:32;52159.03;;;-145.37;80.07
13486;BME280;6815;59.336;17.998;2023-02-03T03:15:09;52155.03;;;-145.37;79.92
13486;BME280;6815;59.336;17.998;2023-02-03T03:17:41;52163.00;;;-145.37;79.79
13486;BME280;6815;59.336;17.998;2023-02-03T03:20:13;52169.00;;;-145.37;80.70
13486;BME280;6815;59.336;17.998;2023-02-03T03:22:46;52178.97;;;-145.37;80.43
13486;BME280;6815;59.336;17.998;2023-02-03T03:25:17;52149.03;;;-145.37;81.05
13486;BME280;6815;59.336;17.998;2023-02-03T03:27:53;52169.00;;;-145.37;80.42
13486;BME280;6815;59.336;17.998;2023-02-03T03:30:23;52175.00;;;-145.37;79.88
13486;BME280;6815;59.336;17.998;2023-02-03T03:32:50;52139.06;;;-145.37;79.57
13486;BME280;6815;59.336;17.998;2023-02-03T03:35:17;52175.00;;;-145.37;79.31
13486;BME280;6815;59.336;17.998;2023-02-03T03:38:04;52133.06;;;-145.37;79.93
13486;BME280;6815;59.336;17.998;2023-02-03T03:40:36;52143.06;;;-145.37;80.21
13486;BME280;6815;59.336;17.998;2023-02-03T03:43:10;52149.03;;;-145.37;79.74
13486;BME280;6815;59.336;17.998;2023-02-03T03:45:43;52153.03;;;-145.37;79.15
13486;BME280;6815;59.336;17.998;2023-02-03T03:48:36;52149.03;;;-145.37;80.15
13486;BME280;6815;59.336;17.998;2023-02-03T03:51:12;52177.00;;;-145.37;80.20
13486;BME280;6815;59.336;17.998;2023-02-03T03:53:42;52147.03;;;-145.37;79.23
13486;BME280;6815;59.336;17.998;2023-02-03T03:56:12;52163.00;;;-145.37;78.92
13486;BME280;6815;59.336;17.998;2023-02-03T03:58:42;52139.06;;;-145.37;79.04
13486;BME280;6815;59.336;17.998;2023-02-03T04:01:14;52173.00;;;-145.37;80.65
13486;BME280;6815;59.336;17.998;2023-02-03T04:03:44;52173.00;;;-145.37;81.03
13486;BME280;6815;59.336;17.998;2023-02-03T04:06:11;52155.03;;;-145.37;81.12
13486;BME280;6815;59.336;17.998;2023-02-03T04:08:36;52165.00;;;-145.37;80.36
13486;BME280;6815;59.336;17.998;2023-02-03T04:11:03;52169.00;;;-145.37;80.01
13486;BME280;6815;59.336;17.998;2023-02-03T04:13:30;52184.97;;;-145.37;79.56
13486;BME280;6815;59.336;17.998;2023-02-03T04:15:56;52153.03;;;-145.37;80.38
13486;BME280;6815;59.336;17.998;2023-02-03T04:18:21;52137.06;;;-145.37;81.38
13486;BME280;6815;59.336;17.998;2023-02-03T04:20:49;52175.00;;;-145.37;81.01
13486;BME280;6815;59.336;17.998;2023-02-03T04:23:15;52169.00;;;-145.37;81.79
13486;BME280;6815;59.336;17.998;2023-02-03T04:25:40;52129.06;;;-145.37;81.27
13486;BME280;6815;59.336;17.998;2023-02-03T04:28:06;52133.06;;;-145.37;80.60
13486;BME280;6815;59.336;17.998;2023-02-03T04:30:32;52139.06;;;-145.37;80.62
13486;BME280;6815;59.336;17.998;2023-02-03T04:32:58;52184.97;;;-145.37;81.15
13486;BME280;6815;59.336;17.998;2023-02-03T04:35:26;52153.03;;;-145.37;81.10
13486;BME280;6815;59.336;17.998;2023-02-03T04:37:52;52121.09;;;-145.37;80.94
13486;BME280;6815;59.336;17.998;2023-02-03T04:40:17;52165.00;;;-145.37;80.21
13486;BME280;6815;59.336;17.998;2023-02-03T04:42:43;52165.00;;;-145.37;80.65
13486;BME280;6815;59.336;17.998;2023-02-03T04:45:10;52171.00;;;-145.37;81.49
13486;BME280;6815;59.336;17.998;2023-02-03T04:47:36;52143.06;;;-145.37;81.32
13486;BME280;6815;59.336;17.998;2023-02-03T04:50:02;52173.00;;;-145.37;81.26
13486;BME280;6815;59.336;17.998;2023-02-03T04:52:27;52159.03;;;-145.37;82.42
13486;BME280;6815;59.336;17.998;2023-02-03T04:54:53;52151.03;;;-145.37;82.12
13486;BME280;6815;59.336;17.998;2023-02-03T04:57:18;52135.06;;;-145.37;82.18
13486;BME280;6815;59.336;17.998;2023-02-03T04:59:44;52192.97;;;-145.37;81.97
13486;BME280;6815;59.336;17.998;2023-02-03T05:02:11;52171.00;;;-145.37;82.34
13486;BME280;6815;59.336;17.998;2023-02-03T05:04:36;52141.06;;;-145.37;83.25
13486;BME280;6815;59.336;17.998;2023-02-03T05:07:05;52153.03;;;-145.37;83.09
13486;BME280;6815;59.336;17.998;2023-02-03T05:09:31;52125.09;;;-145.37;82.86
13486;BME280;6815;59.336;17.998;2023-02-03T05:12:01;52169.00;;;-145.37;82.91
13486;BME280;6815;59.336;17.998;2023-02-03T05:14:27;52149.03;;;-145.37;81.85
13486;BME280;6815;59.336;17.998;2023-02-03T05:16:52;52139.06;;;-145.37;81.16
13486;BME280;6815;59.336;17.998;2023-02-03T05:19:18;52173.00;;;-145.37;81.16
13486;BME280;6815;59.336;17.998;2023-02-03T05:21:43;52157.03;;;-145.37;80.51
13486;BME280;6815;59.336;17.998;2023-02-03T05:24:10;52182.97;;;-145.37;80.88
13486;BME280;6815;59.336;17.998;2023-02-03T05:26:36;52149.03;;;-145.37;80.79
13486;BME280;6815;59.336;17.998;2023-02-03T05:29:03;52133.06;;;-145.37;80.62
13486;BME280;6815;59.336;17.998;2023-02-03T05:31:28;52153.03;;;-145.37;81.23
13486;BME280;6815;59.336;17.998;2023-02-03T05:33:56;52137.06;;;-145.37;81.15
13486;BME280;6815;59.336;17.998;2023-02-03T05:36:21;52165.00;;;-145.37;81.86
13486;BME280;6815;59.336;17.998;2023-02-03T05:38:47;52151.03;;;-145.37;81.11
13486;BME280;6815;59.336;17.998;2023-02-03T05:41:12;52155.03;;;-145.37;80.88
13486;BME280;6815;59.336;17.998;2023-02-03T05:43:56;52141.06;;;-145.37;81.65
13486;BME280;6815;59.336;17.998;2023-02-03T05:46:22;52137.06;;;-145.37;80.90
13486;BME280;6815;59.336;17.998;2023-02-03T05:48:48;52153.03;;;-145.37;82.29
13486;BME280;6815;59.336;17.998;2023-02-03T05:51:15;52149.03;;;-145.37;81.43
13486;BME280;6815;59.336;17.998;2023-02-03T05:53:44;52121.09;;;-145.37;81.08
13486;BME280;6815;59.336;17.998;2023-02-03T05:56:11;52182.97;;;-145.37;80.45
13486;BME280;6815;59.336;17.998;2023-02-03T05:58:36;52190.97;;;-145.37;80.59
13486;BME280;6815;59.336;17.998;2023-02-03T06:01:02;52173.00;;;-145.37;80.80
13486;BME280;6815;59.336;17.998;2023-02-03T06:03:27;52163.00;;;-145.37;82.07
13486;BME280;6815;59.336;17.998;2023-02-03T06:05:54;52163.00;;;-145.37;82.67
13486;BME280;6815;59.336;17.998;2023-02-03T06:08:19;52180.97;;;-145.37;81.58
13486;BME280;6815;59.336;17.998;2023-02-03T06:10:45;52157.03;;;-145.37;81.61
13486;BME280;6815;59.336;17.998;2023-02-03T06:13:14;52121.09;;;-145.37;81.36
13486;BME280;6815;59.336;17.998;2023-02-03T06:15:40;52155.03;;;-145.37;81.62
13486;BME280;6815;59.336;17.998;2023-02-03T06:18:06;52180.97;;;-145.37;81.82
13486;BME280;6815;59.336;17.998;2023-02-03T06:20:33;52127.09;;;-145.37;81.99
13486;BME280;6815;59.336;17.998;2023-02-03T06:22:59;52169.00;;;-145.37;82.17
13486;BME280;6815;59.336;17.998;2023-02-03T06:25:24;52143.06;;;-145.37;81.77
13486;BME280;6815;59.336;17.998;2023-02-03T06:27:51;52135.06;;;-145.37;81.26
13486;BME280;6815;59.336;17.998;2023-02-03T06:30:17;52149.03;;;-145.37;81.35
13486;BME280;6815;59.336;17.998;2023-02-03T06:32:43;52184.97;;;-145.37;81.39
13486;BME280;6815;59.336;17.998;2023-02-03T06:35:08;52147.03;;;-145.37;80.90
13486;BME280;6815;59.336;17.998;2023-02-03T06:37:34;52131.06;;;-145.37;81.49
13486;BME280;6815;59.336;17.998;2023-02-03T06:40:02;52149.03;;;-145.37;82.09
13486;BME280;6815;59.336;17.998;2023-02-03T06:42:29;52159.03;;;-145.37;82.15
13486;BME280;6815;59.336;17.998;2023-02-03T06:44:56;52141.06;;;-145.37;82.05
13486;BME280;6815;59.336;17.998;2023-02-03T06:47:21;52196.94;;;-145.37;82.52
13486;BME280;6815;59.336;17.998;2023-02-03T06:49:46;52149.03;;;-145.37;83.47
13486;BME280;6815;59.336;17.998;2023-02-03T06:52:12;52194.94;;;-145.37;82.78
13486;BME280;6815;59.336;17.998;2023-02-03T06:54:40;52192.97;;;-145.37;83.27
13486;BME280;6815;59.336;17.998;2023-02-03T06:57:05;52129.06;;;-145.37;82.63
13486;BME280;6815;59.336;17.998;2023-02-03T06:59:32;52143.06;;;-145.37;82.39
13486;BME280;6815;59.336;17.998;2023-02-03T07:01:57;52157.03;;;-145.37;82.27
13486;BME280;6815;59.336;17.998;2023-02-03T07:04:24;52182.97;;;-145.37;82.55
13486;BME280;6815;59.336;17.998;2023-02-03T07:06:52;52151.03;;;-145.37;82.76
13486;BME280;6815;59.336;17.998;2023-02-03T07:09:19;52173.00;;;-145.37;82.89
13486;BME280;6815;59.336;17.998;2023-02-03T07:11:46;52161.03;;;-145.37;82.67
13486;BME280;6815;59.336;17.998;2023-02-03T07:14:11;52129.06;;;-145.37;82.70
13486;BME280;6815;59.336;17.998;2023-02-03T07:16:37;52196.94;;;-145.37;82.54
13486;BME280;6815;59.336;17.998;2023-02-03T07:19:04;52173.00;;;-145.37;82.35
13486;BME280;6815;59.336;17.998;2023-02-03T07:21:30;52157.03;;;-145.37;82.23
13486;BME280;6815;59.336;17.998;2023-02-03T07:23:55;52159.03;;;-145.37;82.13
13486;BME280;6815;59.336;17.998;2023-02-03T07:26:22;52182.97;;;-145.37;82.05
13486;BME280;6815;59.336;17.998;2023-02-03T07:28:49;52153.03;;;-145.37;82.17
13486;BME280;6815;59.336;17.998;2023-02-03T07:31:17;52157.03;;;-145.37;82.74
13486;BME280;6815;59.336;17.998;2023-02-03T07:33:43;52173.00;;;-145.37;82.52
13486;BME280;6815;59.336;17.998;2023-02-03T07:36:10;52161.03;;;-145.37;83.02
13486;BME280;6815;59.336;17.998;2023-02-03T07:38:36;52159.03;;;-145.37;83.16
13486;BME280;6815;59.336;17.998;2023-02-03T07:41:05;52143.06;;;-145.37;83.52
13486;BME280;6815;59.336;17.998;2023-02-03T07:43:31;52157.03;;;-145.37;83.40
13486;BME280;6815;59.336;17.998;2023-02-03T07:45:57;52165.00;;;-145.37;83.42
13486;BME280;6815;59.336;17.998;2023-02-03T07:48:23;52153.03;;;-145.37;83.81
13486;BME280;6815;59.336;17.998;2023-02-03T07:50:51;52143.06;;;-145.37;83.23
13486;BME280;6815;59.336;17.998;2023-02-03T07:53:18;52165.00;;;-145.37;83.20
13486;BME280;6815;59.336;17.998;2023-02-03T07:55:43;52190.97;;;-145.37;82.71
13486;BME280;6815;59.336;17.998;2023-02-03T07:58:11;52147.03;;;-145.37;84.18
13486;BME280;6815;59.336;17.998;2023-02-03T08:00:39;52139.06;;;-145.37;83.92
13486;BME280;6815;59.336;17.998;2023-02-03T08:03:04;52178.97;;;-145.37;83.64
13486;BME280;6815;59.336;17.998;2023-02-03T08:05:30;52196.94;;;-145.37;83.84
13486;BME280;6815;59.336;17.998;2023-02-03T08:08:00;52171.00;;;-145.37;83.58
13486;BME280;6815;59.336;17.998;2023-02-03T08:10:26;52159.03;;;-145.37;83.93
13486;BME280;6815;59.336;17.998;2023-02-03T08:12:53;52184.97;;;-145.37;83.88
13486;BME280;6815;59.336;17.998;2023-02-03T08:15:19;52167.00;;;-145.37;84.00
13486;BME280;6815;59.336;17.998;2023-02-03T08:17:44;52161.03;;;-145.37;84.02
13486;BME280;6815;59.336;17.998;2023-02-03T08:20:10;52171.00;;;-145.37;84.35
13486;BME280;6815;59.336;17.998;2023-02-03T08:22:36;52180.97;;;-145.37;84.03
13486;BME280;6815;59.336;17.998;2023-02-03T08:40:24;52188.97;;;-145.37;84.69
13486;BME280;6815;59.336;17.998;2023-02-03T08:42:50;52157.03;;;-145.37;84.26
13486;BME280;6815;59.336;17.998;2023-02-03T08:45:16;52204.94;;;-145.37;85.12
13486;BME280;6815;59.336;17.998;2023-02-03T08:47:42;52109.13;;;-145.37;85.65
13486;BME280;6815;59.336;17.998;2023-02-03T08:50:08;52190.97;;;-145.37;85.07
13486;BME280;6815;59.336;17.998;2023-02-03T08:52:35;52182.97;;;-145.37;85.01
13486;BME280;6815;59.336;17.998;2023-02-03T08:55:01;52167.00;;;-145.37;85.19
13486;BME280;6815;59.336;17.998;2023-02-03T08:57:31;52177.00;;;-145.37;85.01
13486;BME280;6815;59.336;17.998;2023-02-03T08:59:57;52165.00;;;-145.37;84.70
13486;BME280;6815;59.336;17.998;2023-02-03T09:02:23;52202.94;;;-145.37;85.24
13486;BME280;6815;59.336;17.998;2023-02-03T09:04:50;52157.03;;;-145.37;85.18
13486;BME280;6815;59.336;17.998;2023-02-03T09:07:16;52196.94;;;-145.37;85.59
13486;BME280;6815;59.336;17.998;2023-02-03T09:09:42;52182.97;;;-145.37;85.50
13486;BME280;6815;59.336;17.998;2023-02-03T09:12:07;52190.97;;;-145.37;85.53
13486;BME280;6815;59.336;17.998;2023-02-03T09:14:33;52188.97;;;-145.37;86.15
13486;BME280;6815;59.336;17.998;2023-02-03T09:17:00;52204.94;;;-145.37;86.05
13486;BME280;6815;59.336;17.998;2023-02-03T09:19:28;52157.03;;;-145.37;86.58
13486;BME280;6815;59.336;17.998;2023-02-03T09:21:54;52178.97;;;-145.37;86.44
13486;BME280;6815;59.336;17.998;2023-02-03T09:24:21;52236.88;;;-145.37;86.50
13486;BME280;6815;59.336;17.998;2023-02-03T09:26:47;52177.00;;;-145.37;86.93
13486;BME280;6815;59.336;17.998;2023-02-03T09:29:13;52159.03;;;-145.37;86.58
13486;BME280;6815;59.336;17.998;2023-02-03T09:31:38;52177.00;;;-145.37;86.54
13486;BME280;6815;59.336;17.998;2023-02-03T09:34:04;52204.94;;;-145.37;86.25
13486;BME280;6815;59.336;17.998;2023-02-03T09:36:29;52184.97;;;-145.37;86.39
13486;BME280;6815;59.336;17.998;2023-02-03T09:38:56;52147.03;;;-145.37;86.30
13486;BME280;6815;59.336;17.998;2023-02-03T09:44:11;52222.91;;;-145.37;86.41
13486;BME280;6815;59.336;17.998;2023-02-03T09:46:47;52157.03;;;-145.37;86.08
13486;BME280;6815;59.336;17.998;2023-02-03T09:49:46;52155.03;;;-145.37;86.24
13486;BME280;6815;59.336;17.998;2023-02-03T09:52:17;52177.00;;;-145.37;86.52
13486;BME280;6815;59.336;17.998;2023-02-03T09:57:26;52190.97;;;-145.37;86.41
13486;BME280;6815;59.336;17.998;2023-02-03T09:59:53;52178.97;;;-145.37;86.19
13486;BME280;6815;59.336;17.998;2023-02-03T10:05:14;52200.94;;;-145.37;86.13
13486;BME280;6815;59.336;17.998;2023-02-03T10:08:34;52204.94;;;-145.37;86.19
13486;BME280;6815;59.336;17.998;2023-02-03T10:11:54;52177.00;;;-145.37;86.41
13486;BME280;6815;59.336;17.998;2023-02-03T10:14:42;52161.03;;;-145.37;86.39
13486;BME280;6815;59.336;17.998;2023-02-03T10:22:29;52177.00;;;-145.37;86.83
13486;BME280;6815;59.336;17.998;2023-02-03T10:25:00;52200.94;;;-145.37;86.64
13486;BME280;6815;59.336;17.998;2023-02-03T10:27:28;52182.97;;;-145.37;86.97
13486;BME280;6815;59.336;17.998;2023-02-03T10:30:16;52196.94;;;-145.37;86.66
13486;BME280;6815;59.336;17.998;2023-02-03T10:32:43;52204.94;;;-145.37;86.58
13486;BME280;6815;59.336;17.998;2023-02-03T10:35:12;52196.94;;;-145.37;86.38
13486;BME280;6815;59.336;17.998;2023-02-03T10:37:50;52198.94;;;-145.37;86.39
13486;BME280;6815;59.336;17.998;2023-02-03T10:40:21;52169.00;;;-145.37;86.41
13486;BME280;6815;59.336;17.998;2023-02-03T10:42:49;52182.97;;;-145.37;86.86
13486;BME280;6815;59.336;17.998;2023-02-03T10:45:37;52177.00;;;-145.37;86.48
13486;BME280;6815;59.336;17.998;2023-02-03T10:48:05;52182.97;;;-145.37;86.41
13486;BME280;6815;59.336;17.998;2023-02-03T10:50:34;52206.94;;;-145.37;86.61
13486;BME280;6815;59.336;17.998;2023-02-03T10:53:25;52214.91;;;-145.37;86.73
13486;BME280;6815;59.336;17.998;2023-02-03T10:56:04;52171.00;;;-145.37;86.61
13486;BME280;6815;59.336;17.998;2023-02-03T10:58:32;52212.91;;;-145.37;86.86
13486;BME280;6815;59.336;17.998;2023-02-03T11:01:13;52161.03;;;-145.37;86.60
13486;BME280;6815;59.336;17.998;2023-02-03T11:03:57;52184.97;;;-145.37;86.81
13486;BME280;6815;59.336;17.998;2023-02-03T11:06:24;52192.97;;;-145.37;87.19
13486;BME280;6815;59.336;17.998;2023-02-03T11:08:50;52196.94;;;-145.37;86.90
13486;BME280;6815;59.336;17.998;2023-02-03T11:16:29;52202.94;;;-145.37;87.02
13486;BME280;6815;59.336;17.998;2023-02-03T11:19:01;52188.97;;;-145.37;87.12
13486;BME280;6815;59.336;17.998;2023-02-03T11:21:40;52202.94;;;-145.37;87.04
13486;BME280;6815;59.336;17.998;2023-02-03T11:26:56;52208.94;;;-145.37;86.92
13486;BME280;6815;59.336;17.998;2023-02-03T11:29:28;52216.91;;;-145.37;86.88
13486;BME280;6815;59.336;17.998;2023-02-03T11:31:57;52184.97;;;-145.37;87.20
13486;BME280;6815;59.336;17.998;2023-02-03T11:34:33;52182.97;;;-145.37;87.18
13486;BME280;6815;59.336;17.998;2023-02-03T11:40:26;52232.88;;;-145.37;87.43
13486;BME280;6815;59.336;17.998;2023-02-03T11:45:38;52210.91;;;-145.37;87.34
13486;BME280;6815;59.336;17.998;2023-02-03T11:50:35;52169.00;;;-145.37;87.51
13486;BME280;6815;59.336;17.998;2023-02-03T11:53:21;52182.97;;;-145.37;86.99
13486;BME280;6815;59.336;17.998;2023-02-03T11:56:16;52238.88;;;-145.37;87.14
13486;BME280;6815;59.336;17.998;2023-02-03T12:04:28;52210.91;;;-145.37;86.67
13486;BME280;6815;59.336;17.998;2023-02-03T12:07:05;52222.91;;;-145.37;86.38
13486;BME280;6815;59.336;17.998;2023-02-03T12:10:40;52188.97;;;-145.37;86.22
13486;BME280;6815;59.336;17.998;2023-02-03T12:15:59;52242.88;;;-145.37;84.70
13486;BME280;6815;59.336;17.998;2023-02-03T12:21:39;52206.94;;;-145.37;84.46
13486;BME280;6815;59.336;17.998;2023-02-03T12:29:53;52192.97;;;-145.37;83.77
13486;BME280;6815;59.336;17.998;2023-02-03T12:32:30;52196.94;;;-145.37;83.38
13486;BME280;6815;59.336;17.998;2023-02-03T12:37:32;52232.88;;;-145.37;83.30
13486;BME280;6815;59.336;17.998;2023-02-03T12:40:17;52226.91;;;-145.37;83.26
13486;BME280;6815;59.336;17.998;2023-02-03T12:49:39;52190.97;;;-145.37;82.89
13486;BME280;6815;59.336;17.998;2023-02-03T12:51:43;52198.94;;;-145.37;82.78
13486;BME280;6815;59.336;17.998;2023-02-03T12:57:25;52196.94;;;-145.37;82.39
13486;BME280;6815;59.336;17.998;2023-02-03T13:00:20;52222.91;;;-145.37;82.00
13486;BME280;6815;59.336;17.998;2023-02-03T13:05:54;52218.91;;;-145.37;81.33
13486;BME280;6815;59.336;17.998;2023-02-03T13:14:42;52216.91;;;-145.37;79.71
13486;BME280;6815;59.336;17.998;2023-02-03T13:17:21;52212.91;;;-145.37;79.57
13486;BME280;6815;59.336;17.998;2023-02-03T13:19:51;52210.91;;;-145.37;78.69
13486;BME280;6815;59.336;17.998;2023-02-03T13:22:17;52192.97;;;-145.37;78.31
13486;BME280;6815;59.336;17.998;2023-02-03T13:24:50;52230.88;;;-145.37;78.18
13486;BME280;6815;59.336;17.998;2023-02-03T13:30:32;52202.94;;;-145.37;77.90
13486;BME280;6815;59.336;17.998;2023-02-03T13:36:29;52240.88;;;-145.37;78.37
13486;BME280;6815;59.336;17.998;2023-02-03T13:39:24;52204.94;;;-145.37;78.37
13486;BME280;6815;59.336;17.998;2023-02-03T13:42:25;52224.91;;;-145.37;79.01
13486;BME280;6815;59.336;17.998;2023-02-03T13:44:56;52220.91;;;-145.37;79.28
13486;BME280;6815;59.336;17.998;2023-02-03T13:47:28;52202.94;;;-145.37;79.63
13486;BME280;6815;59.336;17.998;2023-02-03T13:50:00;52242.88;;;-145.37;79.36
13486;BME280;6815;59.336;17.998;2023-02-03T13:52:40;52220.91;;;-145.37;79.25
13486;BME280;6815;59.336;17.998;2023-02-03T13:55:27;52190.97;;;-145.37;79.35
13486;BME280;6815;59.336;17.998;2023-02-03T13:57:53;52224.91;;;-145.37;79.54
13486;BME280;6815;59.336;17.998;2023-02-03T14:05:52;52254.84;;;-145.37;79.55
13486;BME280;6815;59.336;17.998;2023-02-03T14:16:43;52240.88;;;-145.37;79.81
13486;BME280;6815;59.336;17.998;2023-02-03T14:19:11;52222.91;;;-145.37;79.70
13486;BME280;6815;59.336;17.998;2023-02-03T14:21:48;52198.94;;;-145.37;80.05
13486;BME280;6815;59.336;17.998;2023-02-03T14:24:16;52190.97;;;-145.37;80.09
13486;BME280;6815;59.336;17.998;2023-02-03T14:32:11;52182.97;;;-145.37;79.51
13486;BME280;6815;59.336;17.998;2023-02-03T14:34:38;52210.91;;;-145.37;79.54
13486;BME280;6815;59.336;17.998;2023-02-03T14:50:45;52206.94;;;-145.37;80.48
13486;BME280;6815;59.336;17.998;2023-02-03T14:56:12;52194.94;;;-145.37;80.24
13486;BME280;6815;59.336;17.998;2023-02-03T14:58:48;52190.97;;;-145.37;80.01
13486;BME280;6815;59.336;17.998;2023-02-03T15:02:07;52206.94;;;-145.37;80.38
13486;BME280;6815;59.336;17.998;2023-02-03T15:06:48;52228.88;;;-145.37;80.15
13486;BME280;6815;59.336;17.998;2023-02-03T15:09:26;52204.94;;;-145.37;79.91
13486;BME280;6815;59.336;17.998;2023-02-03T15:12:23;52218.91;;;-145.37;80.10
13486;BME280;6815;59.336;17.998;2023-02-03T15:14:50;52226.91;;;-145.37;80.18
13486;BME280;6815;59.336;17.998;2023-02-03T15:17:23;52208.94;;;-145.37;80.28
13486;BME280;6815;59.336;17.998;2023-02-03T15:19:49;52190.97;;;-145.37;80.50
13486;BME280;6815;59.336;17.998;2023-02-03T15:22:23;52190.97;;;-145.37;81.23
13486;BME280;6815;59.336;17.998;2023-02-03T15:39:52;52184.97;;;-145.37;82.61
13486;BME280;6815;59.336;17.998;2023-02-03T15:42:50;52254.84;;;-145.37;82.42